Time;durP1;ratioP1;P1;durP2;ratioP2;P2;SDS_P1;SDS_P2;PMS_P1;PMS_P2;Temp;Humidity;BMP_temperature;BMP_pressure;BME280_temperature;BME280_humidity;BME280_pressure;Samples;Min_cycle;Max_cycle;Signal;HPM_P1;HPM_P2
2023/10/04 00:00:15;;;;;;;4.25;1.98;;;12.90;99.90;;;;;;5040965;28;20436;-68
2023/10/04 00:02:44;;;;;;;4.45;2.25;;;12.90;99.90;;;;;;5037919;28;20440;-68
2023/10/04 00:05:14;;;;;;;4.47;2.53;;;12.90;99.90;;;;;;5041127;28;20417;-69
2023/10/04 00:07:43;;;;;;;4.72;2.30;;;12.80;99.90;;;;;;5032436;28;20522;-68
2023/10/04 00:10:10;;;;;;;5.85;2.20;;;12.80;99.90;;;;;;5036496;28;20868;-68
2023/10/04 00:12:38;;;;;;;5.60;2.45;;;12.80;99.90;;;;;;5034799;28;20442;-68
2023/10/04 00:15:09;;;;;;;4.00;2.10;;;12.70;99.90;;;;;;5031882;28;20421;-68
2023/10/04 00:17:35;;;;;;;4.55;2.50;;;12.70;99.90;;;;;;5037911;28;20429;-68
2023/10/04 00:20:07;;;;;;;6.05;2.50;;;12.70;99.90;;;;;;5032576;28;20423;-68
2023/10/04 00:22:34;;;;;;;5.53;2.28;;;12.60;99.90;;;;;;5038533;28;20576;-68
2023/10/04 00:25:04;;;;;;;4.85;2.55;;;12.60;99.90;;;;;;5036063;28;21076;-69
2023/10/04 00:27:30;;;;;;;5.28;2.30;;;12.60;99.90;;;;;;5034449;28;20894;-68
2023/10/04 00:29:57;;;;;;;6.22;2.20;;;12.50;99.90;;;;;;5041745;28;20997;-68
2023/10/04 00:32:26;;;;;;;6.10;2.25;;;12.50;99.90;;;;;;5039111;28;20440;-69
2023/10/04 00:34:54;;;;;;;6.10;2.30;;;12.50;99.90;;;;;;5038962;28;20524;-69
2023/10/04 00:37:21;;;;;;;4.88;2.28;;;12.50;99.90;;;;;;5032311;28;20431;-68
2023/10/04 00:39:48;;;;;;;6.28;2.47;;;12.50;99.90;;;;;;5032520;28;20436;-68
2023/10/04 00:42:18;;;;;;;4.72;2.30;;;12.50;99.90;;;;;;5027553;28;20439;-69
2023/10/04 00:44:45;;;;;;;3.75;1.98;;;12.50;99.90;;;;;;5033715;28;20891;-69
2023/10/04 00:47:11;;;;;;;5.57;2.30;;;12.50;99.90;;;;;;5058340;22;20390;-69
2023/10/04 00:49:45;;;;;;;5.80;2.20;;;12.50;99.90;;;;;;5084414;28;20425;-66
2023/10/04 00:52:13;;;;;;;5.13;2.00;;;12.50;99.90;;;;;;5074117;28;20908;-67
2023/10/04 00:54:40;;;;;;;5.30;2.38;;;12.50;99.90;;;;;;5079714;28;20411;-67
2023/10/04 00:57:10;;;;;;;5.55;2.00;;;12.50;99.90;;;;;;5077551;28;20426;-67
2023/10/04 00:59:38;;;;;;;7.20;2.60;;;12.60;99.90;;;;;;5076090;28;20449;-68
2023/10/04 01:02:06;;;;;;;5.72;2.10;;;12.60;99.90;;;;;;5087763;28;20413;-67
2023/10/04 01:04:33;;;;;;;5.20;2.40;;;12.60;99.90;;;;;;5080817;28;20463;-66
2023/10/04 01:07:00;;;;;;;5.63;2.30;;;12.60;99.90;;;;;;5088858;28;20409;-67
2023/10/04 01:09:27;;;;;;;6.25;2.40;;;12.60;99.90;;;;;;5081094;28;20406;-67
2023/10/04 01:11:54;;;;;;;5.97;2.47;;;12.60;99.90;;;;;;5087503;28;20583;-67
2023/10/04 01:14:25;;;;;;;6.20;2.20;;;12.60;99.90;;;;;;5084159;28;20440;-65
2023/10/04 01:16:54;;;;;;;5.30;2.40;;;12.60;99.90;;;;;;5088333;28;20808;-67
2023/10/04 01:19:22;;;;;;;6.30;2.70;;;12.60;99.90;;;;;;5089095;28;20573;-69
2023/10/04 01:21:49;;;;;;;4.90;1.70;;;12.70;99.90;;;;;;5088602;28;20479;-68
2023/10/04 01:24:19;;;;;;;6.10;2.50;;;12.70;99.90;;;;;;5089683;28;20457;-68
2023/10/04 01:26:46;;;;;;;6.85;2.72;;;12.60;99.90;;;;;;5084710;28;20422;-67
2023/10/04 01:29:15;;;;;;;5.57;2.10;;;12.70;99.90;;;;;;5088803;28;20406;-67
2023/10/04 01:31:42;;;;;;;7.03;2.27;;;12.70;99.90;;;;;;5081053;28;20422;-67
2023/10/04 01:34:13;;;;;;;4.80;2.47;;;12.70;99.90;;;;;;5088796;28;20410;-67
2023/10/04 01:36:41;;;;;;;5.05;1.90;;;12.60;99.90;;;;;;5088615;28;20421;-66
2023/10/04 01:39:15;;;;;;;4.70;2.10;;;12.60;99.90;;;;;;5077941;28;20430;-67
2023/10/04 01:41:43;;;;;;;5.78;2.33;;;12.60;99.90;;;;;;5086320;28;20588;-66
2023/10/04 01:44:11;;;;;;;5.78;2.90;;;12.60;99.90;;;;;;5084321;28;20426;-67
2023/10/04 01:46:38;;;;;;;8.35;2.40;;;12.60;99.90;;;;;;5082762;28;20461;-66
2023/10/04 01:49:07;;;;;;;7.03;2.47;;;12.60;99.90;;;;;;5087733;28;20402;-67
2023/10/04 01:51:33;;;;;;;7.07;2.30;;;12.60;99.90;;;;;;5088078;28;20425;-67
2023/10/04 01:54:00;;;;;;;5.72;2.22;;;12.60;99.90;;;;;;5086018;28;20844;-69
2023/10/04 01:56:27;;;;;;;5.93;2.03;;;12.60;99.90;;;;;;5084406;28;20429;-66
2023/10/04 01:58:55;;;;;;;5.90;2.20;;;12.60;99.90;;;;;;5079506;28;20498;-67
2023/10/04 02:01:22;;;;;;;5.70;2.03;;;12.60;99.90;;;;;;5086570;28;20896;-67
2023/10/04 02:03:49;;;;;;;4.28;2.30;;;12.60;99.90;;;;;;5078437;28;20428;-67
2023/10/04 02:06:16;;;;;;;4.57;1.80;;;12.60;99.90;;;;;;5081482;28;20846;-66
2023/10/04 02:08:44;;;;;;;8.93;2.75;;;12.60;99.90;;;;;;5082342;28;20441;-67
2023/10/04 02:11:11;;;;;;;5.50;1.73;;;12.60;99.90;;;;;;5082065;28;20513;-67
2023/10/04 02:13:40;;;;;;;5.28;2.10;;;12.60;99.90;;;;;;5076311;28;20956;-66
2023/10/04 02:16:16;;;;;;;5.38;1.90;;;12.60;99.90;;;;;;5075789;28;20517;-69
2023/10/04 02:18:43;;;;;;;4.50;2.10;;;12.60;99.90;;;;;;5076890;28;20419;-67
2023/10/04 02:21:11;;;;;;;3.85;1.90;;;12.60;99.90;;;;;;5087804;28;20530;-67
2023/10/04 02:23:38;;;;;;;7.25;2.30;;;12.60;99.90;;;;;;5088352;28;20872;-66
2023/10/04 02:26:06;;;;;;;4.50;2.10;;;12.60;99.90;;;;;;5082859;28;20517;-66
2023/10/04 02:28:33;;;;;;;7.22;2.38;;;12.70;99.90;;;;;;5080276;28;20464;-66
2023/10/04 02:31:02;;;;;;;4.85;1.92;;;12.70;99.90;;;;;;5087006;28;20851;-66
2023/10/04 02:33:33;;;;;;;6.85;2.08;;;12.70;99.90;;;;;;5077098;28;20443;-67
2023/10/04 02:36:00;;;;;;;9.00;2.67;;;12.70;99.90;;;;;;5087794;28;20437;-67
2023/10/04 02:38:29;;;;;;;4.95;1.98;;;12.70;99.90;;;;;;5087889;28;20547;-68
2023/10/04 02:40:56;;;;;;;5.82;2.08;;;12.70;99.90;;;;;;5085121;28;20421;-68
2023/10/04 02:43:26;;;;;;;4.83;1.80;;;12.70;99.90;;;;;;5087544;28;20417;-66
2023/10/04 02:45:54;;;;;;;6.93;2.10;;;12.70;99.90;;;;;;5087434;28;20410;-66
2023/10/04 02:48:21;;;;;;;5.32;2.30;;;12.70;99.90;;;;;;5087530;28;20731;-67
2023/10/04 02:50:49;;;;;;;6.47;2.22;;;12.80;99.90;;;;;;5087462;28;20417;-69
2023/10/04 02:53:19;;;;;;;4.93;2.30;;;12.80;99.90;;;;;;5079781;28;20414;-67
2023/10/04 02:55:47;;;;;;;6.57;1.70;;;12.80;99.90;;;;;;5077847;28;20428;-68
2023/10/04 02:58:16;;;;;;;5.72;2.20;;;12.80;99.90;;;;;;5084481;28;20762;-67
2023/10/04 03:00:44;;;;;;;5.03;2.17;;;12.80;99.90;;;;;;5087213;28;20505;-65
2023/10/04 03:03:12;;;;;;;6.38;2.10;;;12.70;99.90;;;;;;5078151;28;20484;-67
2023/10/04 03:05:40;;;;;;;4.30;2.10;;;12.80;99.90;;;;;;5087708;28;20892;-68
2023/10/04 03:08:08;;;;;;;5.40;2.00;;;12.80;99.90;;;;;;5081106;28;20500;-67
2023/10/04 03:10:37;;;;;;;5.33;1.90;;;12.80;99.90;;;;;;5079920;28;20450;-67
2023/10/04 03:13:11;;;;;;;5.95;2.22;;;12.80;99.90;;;;;;5084175;28;20428;-67
2023/10/04 03:15:39;;;;;;;6.07;1.65;;;12.80;99.90;;;;;;5083509;28;20506;-68
2023/10/04 03:18:13;;;;;;;5.55;1.90;;;12.90;99.90;;;;;;5087243;28;20437;-67
2023/10/04 03:20:47;;;;;;;5.82;2.15;;;12.80;99.90;;;;;;5080974;28;20410;-67
2023/10/04 03:23:18;;;;;;;7.25;2.20;;;12.90;99.90;;;;;;5080567;28;20406;-67
2023/10/04 03:25:46;;;;;;;4.38;2.05;;;12.80;99.90;;;;;;5085934;28;20561;-67
2023/10/04 03:28:14;;;;;;;5.85;1.90;;;12.80;99.90;;;;;;5082691;28;20413;-66
2023/10/04 03:30:43;;;;;;;6.43;2.10;;;12.80;99.90;;;;;;5091071;28;20888;-67
2023/10/04 03:33:10;;;;;;;4.47;2.10;;;12.80;99.90;;;;;;5087282;28;20436;-65
2023/10/04 03:35:39;;;;;;;4.40;2.10;;;12.80;99.90;;;;;;5097121;28;20500;-67
2023/10/04 03:38:06;;;;;;;5.15;2.50;;;12.80;99.90;;;;;;5093443;28;20490;-66
2023/10/04 03:40:36;;;;;;;5.72;2.30;;;12.80;99.90;;;;;;5081667;28;20414;-66
2023/10/04 03:43:05;;;;;;;4.87;2.10;;;12.80;99.90;;;;;;5085569;28;20907;-67
2023/10/04 03:45:32;;;;;;;3.40;2.00;;;12.80;99.90;;;;;;5086278;28;20765;-68
2023/10/04 03:47:59;;;;;;;5.05;2.15;;;12.80;99.90;;;;;;5090358;28;20402;-67
2023/10/04 03:50:27;;;;;;;7.70;2.60;;;12.80;99.90;;;;;;5090978;28;20410;-67
2023/10/04 03:52:57;;;;;;;4.07;2.00;;;12.70;99.90;;;;;;5082641;28;20419;-67
2023/10/04 03:55:26;;;;;;;5.70;2.10;;;12.80;99.90;;;;;;5090494;28;20896;-67
2023/10/04 03:57:54;;;;;;;5.63;2.08;;;12.80;99.90;;;;;;5087269;28;20516;-67
2023/10/04 04:00:22;;;;;;;5.65;2.10;;;12.80;99.90;;;;;;5084740;28;20429;-68
2023/10/04 04:02:50;;;;;;;6.45;2.20;;;12.80;99.90;;;;;;5091008;28;20418;-70
2023/10/04 04:05:21;;;;;;;5.53;1.87;;;12.80;99.90;;;;;;5088590;28;20431;-67
2023/10/04 04:07:47;;;;;;;5.45;2.00;;;12.70;99.90;;;;;;5087999;28;20923;-70
2023/10/04 04:10:15;;;;;;;5.20;1.80;;;12.70;99.90;;;;;;5086661;28;20438;-68
2023/10/04 04:12:42;;;;;;;4.32;2.20;;;12.70;99.90;;;;;;5075241;28;20568;-66
2023/10/04 04:15:12;;;;;;;6.68;2.10;;;12.80;99.90;;;;;;5090842;28;20920;-67
2023/10/04 04:17:41;;;;;;;3.70;2.10;;;12.70;99.90;;;;;;5076959;28;20506;-68
2023/10/04 04:20:14;;;;;;;6.60;2.40;;;12.70;99.90;;;;;;5087878;28;20419;-68
2023/10/04 04:22:42;;;;;;;5.20;2.00;;;12.70;99.90;;;;;;5088974;28;20949;-67
2023/10/04 04:25:15;;;;;;;6.10;2.30;;;12.70;99.90;;;;;;5079307;28;20838;-67
2023/10/04 04:27:44;;;;;;;5.38;2.35;;;12.70;99.90;;;;;;5080383;28;20784;-67
2023/10/04 04:30:16;;;;;;;5.80;2.03;;;12.60;99.90;;;;;;5083477;28;20487;-67
2023/10/04 04:32:44;;;;;;;7.57;2.63;;;12.60;99.90;;;;;;5090885;28;20414;-67
2023/10/04 04:35:15;;;;;;;8.80;2.88;;;12.60;99.90;;;;;;5084507;28;20413;-67
2023/10/04 04:37:42;;;;;;;6.90;2.50;;;12.50;99.90;;;;;;5081955;28;20603;-67
2023/10/04 04:40:09;;;;;;;7.47;2.58;;;12.50;99.90;;;;;;5086730;28;20431;-67
2023/10/04 04:42:39;;;;;;;6.55;2.50;;;12.50;99.90;;;;;;5077567;28;20925;-67
2023/10/04 04:45:08;;;;;;;6.90;1.90;;;12.50;99.90;;;;;;5086697;28;20473;-67
2023/10/04 04:47:37;;;;;;;5.85;2.20;;;12.40;99.90;;;;;;5085073;28;20485;-66
2023/10/04 04:50:04;;;;;;;4.22;2.20;;;12.40;99.90;;;;;;5082813;28;20410;-66
2023/10/04 04:52:31;;;;;;;3.90;2.00;;;12.40;99.90;;;;;;5088141;28;20507;-66
2023/10/04 04:54:58;;;;;;;4.75;1.80;;;12.40;99.90;;;;;;5086757;28;20434;-67
2023/10/04 04:57:25;;;;;;;5.10;2.30;;;12.40;99.90;;;;;;5081084;28;20426;-66
2023/10/04 04:59:55;;;;;;;7.27;2.20;;;12.30;99.90;;;;;;5088120;28;20474;-67
2023/10/04 05:02:25;;;;;;;5.80;1.95;;;12.30;99.90;;;;;;5085736;28;20414;-68
2023/10/04 05:04:53;;;;;;;6.80;2.70;;;12.30;99.90;;;;;;5088752;28;20436;-67
2023/10/04 05:07:20;;;;;;;5.47;2.42;;;12.20;99.90;;;;;;5077737;28;20423;-66
2023/10/04 05:09:47;;;;;;;6.80;2.30;;;12.20;99.90;;;;;;5081315;28;20425;-66
2023/10/04 05:12:13;;;;;;;6.05;2.30;;;12.20;99.90;;;;;;5074524;28;20414;-66
2023/10/04 05:14:40;;;;;;;5.50;2.70;;;12.20;99.90;;;;;;5083950;28;20493;-67
2023/10/04 05:17:07;;;;;;;6.57;2.30;;;12.20;99.90;;;;;;5080895;28;20426;-66
2023/10/04 05:19:34;;;;;;;5.22;2.30;;;12.10;99.90;;;;;;5082227;28;20414;-67
2023/10/04 05:22:02;;;;;;;5.07;2.40;;;12.10;99.90;;;;;;5081695;28;20906;-67
2023/10/04 05:24:30;;;;;;;8.80;3.40;;;12.10;99.90;;;;;;5075631;28;20450;-67
2023/10/04 05:26:57;;;;;;;6.38;2.35;;;12.10;99.90;;;;;;5075965;28;20898;-66
2023/10/04 05:29:23;;;;;;;6.38;2.70;;;12.10;99.90;;;;;;5085639;28;20407;-67
2023/10/04 05:31:50;;;;;;;6.18;2.50;;;12.10;99.90;;;;;;5085063;28;20433;-66
2023/10/04 05:34:17;;;;;;;4.57;2.10;;;12.10;99.90;;;;;;5085234;28;20894;-67
2023/10/04 05:36:44;;;;;;;6.85;2.58;;;12.10;99.90;;;;;;5079172;28;20412;-68
2023/10/04 05:39:14;;;;;;;10.05;2.50;;;12.00;99.90;;;;;;5086848;28;20837;-67
2023/10/04 05:41:41;;;;;;;5.68;2.40;;;12.00;99.90;;;;;;5075775;28;20421;-67
2023/10/04 05:44:08;;;;;;;4.72;2.42;;;12.00;99.90;;;;;;5088417;28;20406;-67
2023/10/04 05:46:37;;;;;;;8.50;2.60;;;12.00;99.90;;;;;;5088890;28;20405;-67
2023/10/04 05:49:09;;;;;;;7.63;3.00;;;12.10;99.90;;;;;;5088134;28;20410;-65
2023/10/04 05:51:36;;;;;;;6.85;2.20;;;12.10;99.90;;;;;;5088716;28;20540;-67
2023/10/04 05:54:03;;;;;;;6.33;2.43;;;12.00;99.90;;;;;;5082820;28;20435;-67
2023/10/04 05:56:31;;;;;;;5.93;2.80;;;12.00;99.90;;;;;;5085960;28;20935;-66
2023/10/04 05:59:00;;;;;;;7.60;2.50;;;12.00;99.90;;;;;;5072565;28;20419;-67
2023/10/04 06:01:28;;;;;;;9.00;2.88;;;12.00;99.90;;;;;;5087043;28;20464;-68
2023/10/04 06:03:55;;;;;;;5.85;2.90;;;12.00;99.90;;;;;;5080133;28;20419;-67
2023/10/04 06:06:23;;;;;;;6.65;2.70;;;12.00;99.90;;;;;;5088552;28;20441;-67
2023/10/04 06:08:52;;;;;;;10.05;3.13;;;12.00;99.90;;;;;;5076442;28;20428;-67
2023/10/04 06:11:19;;;;;;;6.35;2.67;;;12.00;99.90;;;;;;5080545;28;20414;-67
2023/10/04 06:13:47;;;;;;;6.95;3.00;;;12.00;99.90;;;;;;5085092;28;20429;-66
2023/10/04 06:16:20;;;;;;;6.30;3.20;;;11.90;99.90;;;;;;5088307;28;20402;-67
2023/10/04 06:18:48;;;;;;;5.22;2.65;;;12.00;99.90;;;;;;5080181;28;20945;-65
2023/10/04 06:21:17;;;;;;;5.90;2.70;;;12.00;99.90;;;;;;5087213;28;20459;-67
2023/10/04 06:23:44;;;;;;;7.45;3.13;;;12.00;99.90;;;;;;5080503;28;20435;-67
2023/10/04 06:26:16;;;;;;;9.07;2.80;;;12.00;99.90;;;;;;5076558;28;20410;-67
2023/10/04 06:28:43;;;;;;;8.77;3.10;;;12.00;99.90;;;;;;5082904;28;20408;-67
2023/10/04 06:31:11;;;;;;;8.07;2.90;;;12.00;99.90;;;;;;5088255;28;20417;-66
2023/10/04 06:33:40;;;;;;;8.02;3.00;;;12.00;99.90;;;;;;5074442;28;20426;-67
2023/10/04 06:36:08;;;;;;;7.57;3.20;;;12.10;99.90;;;;;;5081005;28;20546;-68
2023/10/04 06:38:35;;;;;;;5.90;2.70;;;12.10;99.90;;;;;;5089525;28;20441;-67
2023/10/04 06:41:03;;;;;;;7.30;2.47;;;12.20;99.90;;;;;;5082896;28;20678;-68
2023/10/04 06:43:30;;;;;;;7.07;2.85;;;12.20;99.90;;;;;;5088237;28;20417;-68
2023/10/04 06:45:57;;;;;;;9.23;3.08;;;12.30;99.90;;;;;;5088157;28;20489;-67
2023/10/04 06:48:25;;;;;;;6.30;3.10;;;12.30;99.90;;;;;;5087308;28;20429;-67
2023/10/04 06:50:52;;;;;;;8.65;2.75;;;12.30;99.90;;;;;;5086416;28;20429;-67
2023/10/04 06:53:21;;;;;;;6.88;2.60;;;12.40;99.90;;;;;;5081220;28;20430;-68
2023/10/04 06:55:48;;;;;;;6.22;2.45;;;12.50;99.90;;;;;;5082677;28;20500;-67
2023/10/04 06:58:15;;;;;;;8.27;3.38;;;12.50;99.90;;;;;;5082316;28;20423;-67
2023/10/04 07:00:42;;;;;;;7.18;2.63;;;12.60;99.90;;;;;;5079334;28;20414;-67
2023/10/04 07:03:08;;;;;;;7.20;2.50;;;12.70;99.90;;;;;;5085193;28;20438;-68
2023/10/04 07:05:38;;;;;;;8.35;2.80;;;12.80;99.90;;;;;;5078217;28;20513;-67
2023/10/04 07:08:06;;;;;;;8.80;2.80;;;12.90;99.90;;;;;;5087824;28;20425;-67
2023/10/04 07:10:34;;;;;;;6.90;2.80;;;13.00;99.90;;;;;;5086735;28;20421;-67
2023/10/04 07:13:02;;;;;;;5.63;2.45;;;13.00;99.90;;;;;;5091532;28;20412;-67
2023/10/04 07:15:35;;;;;;;7.25;2.67;;;13.10;99.90;;;;;;5089106;28;20822;-67
2023/10/04 07:18:04;;;;;;;7.63;2.57;;;13.10;99.90;;;;;;5090234;28;20919;-68
2023/10/04 07:20:30;;;;;;;7.07;2.38;;;13.10;99.90;;;;;;5101128;28;20467;-66
2023/10/04 07:22:59;;;;;;;8.88;2.88;;;13.20;99.90;;;;;;5085474;28;20449;-67
2023/10/04 07:25:27;;;;;;;6.55;2.90;;;13.20;99.90;;;;;;5092106;28;20467;-67
2023/10/04 07:27:55;;;;;;;6.50;2.55;;;13.30;99.90;;;;;;5090798;28;20429;-68
2023/10/04 07:30:22;;;;;;;8.05;3.00;;;13.30;99.90;;;;;;5077338;28;20409;-68
2023/10/04 07:32:49;;;;;;;5.18;2.40;;;13.40;99.90;;;;;;5081655;28;20840;-67
2023/10/04 07:35:20;;;;;;;5.85;2.63;;;13.60;99.90;;;;;;5075132;28;20462;-68
2023/10/04 07:37:48;;;;;;;7.57;3.10;;;13.70;99.90;;;;;;5090640;28;20487;-69
2023/10/04 07:40:18;;;;;;;6.75;3.22;;;13.80;99.90;;;;;;5086543;28;20413;-68
2023/10/04 07:42:46;;;;;;;4.95;2.30;;;13.90;99.90;;;;;;5086395;28;20442;-68
2023/10/04 07:45:14;;;;;;;6.70;2.70;;;14.00;99.90;;;;;;5091480;28;20493;-68
2023/10/04 07:47:42;;;;;;;5.18;2.58;;;14.00;99.90;;;;;;5088613;28;20448;-69
2023/10/04 07:50:10;;;;;;;7.05;2.55;;;14.10;99.90;;;;;;5083838;28;20444;-68
2023/10/04 07:52:38;;;;;;;6.88;2.63;;;14.20;99.40;;;;;;5088594;28;20856;-68
2023/10/04 07:55:06;;;;;;;4.68;2.30;;;14.30;99.70;;;;;;5085790;28;20410;-67
2023/10/04 07:57:35;;;;;;;8.07;2.70;;;14.40;99.50;;;;;;5091732;28;20414;-66
2023/10/04 08:00:04;;;;;;;6.65;2.47;;;14.50;98.50;;;;;;5090114;28;20432;-67
2023/10/04 08:02:31;;;;;;;4.78;2.30;;;14.60;98.50;;;;;;5089809;28;20418;-67
2023/10/04 08:04:58;;;;;;;7.63;2.90;;;14.80;97.60;;;;;;5090901;28;20410;-66
2023/10/04 08:07:26;;;;;;;6.60;2.60;;;14.90;97.10;;;;;;5089075;28;20529;-67
2023/10/04 08:09:52;;;;;;;6.85;2.70;;;15.00;96.90;;;;;;5081335;28;20496;-68
2023/10/04 08:12:20;;;;;;;8.20;2.85;;;15.00;96.60;;;;;;5085987;28;20422;-67
2023/10/04 08:14:48;;;;;;;7.45;2.90;;;15.10;96.50;;;;;;5080627;28;20416;-67
2023/10/04 08:19:43;;;;;;;7.10;3.13;;;15.20;96.20;;;;;;5096546;22;20536;-68
2023/10/04 08:22:10;;;;;;;6.70;2.58;;;15.30;95.90;;;;;;5079174;28;20436;-68
2023/10/04 08:24:37;;;;;;;6.20;2.92;;;15.30;95.90;;;;;;5084163;28;20773;-68
2023/10/04 08:27:04;;;;;;;6.20;2.72;;;15.50;95.10;;;;;;5084796;28;20704;-68
2023/10/04 08:29:34;;;;;;;5.80;2.70;;;15.60;95.70;;;;;;5064847;28;20890;-68
2023/10/04 08:32:03;;;;;;;7.30;2.70;;;15.80;95.30;;;;;;5068297;28;20439;-69
2023/10/04 08:34:30;;;;;;;6.60;2.58;;;15.90;94.50;;;;;;5069304;28;20435;-69
2023/10/04 08:36:57;;;;;;;6.25;2.97;;;16.00;93.60;;;;;;5067957;28;20433;-68
2023/10/04 08:39:23;;;;;;;5.90;2.92;;;16.00;94.00;;;;;;5069626;28;20423;-68
2023/10/04 08:41:50;;;;;;;8.82;3.10;;;16.10;93.50;;;;;;5069711;28;21016;-68
2023/10/04 08:44:18;;;;;;;6.68;2.90;;;16.20;93.70;;;;;;5070027;28;20415;-68
2023/10/04 08:46:47;;;;;;;5.82;2.20;;;16.30;93.40;;;;;;5069631;28;20906;-68
2023/10/04 08:49:16;;;;;;;7.75;2.33;;;16.30;92.80;;;;;;5067775;28;20431;-68
2023/10/04 08:51:51;;;;;;;6.40;2.67;;;16.40;92.80;;;;;;5069799;28;20408;-68
2023/10/04 08:54:22;;;;;;;7.80;2.90;;;16.50;92.70;;;;;;5060486;28;20471;-68
2023/10/04 08:56:52;;;;;;;7.50;2.78;;;16.50;92.80;;;;;;5064828;28;20436;-68
2023/10/04 08:59:20;;;;;;;7.72;2.90;;;16.70;92.60;;;;;;5062955;28;20922;-68
2023/10/04 09:01:48;;;;;;;7.13;2.80;;;16.70;91.70;;;;;;5068856;28;20431;-69
2023/10/04 09:04:18;;;;;;;6.80;3.40;;;16.70;91.80;;;;;;5069296;28;20418;-68
2023/10/04 09:06:45;;;;;;;6.30;2.55;;;16.60;92.00;;;;;;5069143;28;20499;-68
2023/10/04 09:09:15;;;;;;;6.03;3.17;;;16.60;91.90;;;;;;5067433;28;20614;-68
2023/10/04 09:11:42;;;;;;;6.97;2.60;;;16.70;92.10;;;;;;5069497;28;20862;-68
2023/10/04 09:14:09;;;;;;;9.48;2.95;;;16.80;91.70;;;;;;5066410;28;20894;-68
2023/10/04 09:16:35;;;;;;;6.85;2.92;;;16.90;91.40;;;;;;5063712;28;20411;-68
2023/10/04 09:19:13;;;;;;;5.80;2.80;;;17.00;90.60;;;;;;5067970;28;20434;-68
2023/10/04 09:21:41;;;;;;;8.52;2.92;;;17.00;90.50;;;;;;5067916;28;20500;-70
2023/10/04 09:24:11;;;;;;;7.85;2.65;;;17.10;90.20;;;;;;5067954;28;20438;-68
2023/10/04 09:26:39;;;;;;;5.80;2.50;;;17.30;89.70;;;;;;5066672;28;20428;-68
2023/10/04 09:29:07;;;;;;;6.97;2.90;;;17.40;89.10;;;;;;5067255;28;20470;-68
2023/10/04 09:31:48;;;;;;;8.27;3.13;;;17.40;89.50;;;;;;5068161;28;20498;-68
2023/10/04 09:34:16;;;;;;;7.30;2.80;;;17.50;88.30;;;;;;5068587;28;20408;-68
2023/10/04 09:36:45;;;;;;;7.47;2.83;;;17.60;89.00;;;;;;5066960;28;20428;-69
2023/10/04 09:39:13;;;;;;;5.18;2.70;;;17.70;88.00;;;;;;5067590;28;20436;-68
2023/10/04 09:41:42;;;;;;;6.53;2.80;;;17.90;87.00;;;;;;5068786;28;20408;-68
2023/10/04 09:44:25;;;;;;;6.63;2.50;;;18.30;84.60;;;;;;5068654;28;20469;-69
2023/10/04 09:46:56;;;;;;;7.30;3.10;;;18.50;83.50;;;;;;5067702;28;20408;-68
2023/10/04 09:49:25;;;;;;;6.20;2.60;;;18.70;81.90;;;;;;5065742;28;20521;-68
2023/10/04 09:51:55;;;;;;;5.10;2.40;;;18.90;80.70;;;;;;5066838;28;20528;-68
2023/10/04 09:54:22;;;;;;;5.60;2.50;;;18.90;80.00;;;;;;5068659;28;20901;-68
2023/10/04 09:56:50;;;;;;;6.17;2.53;;;18.90;78.10;;;;;;5068475;28;20503;-68
2023/10/04 09:59:19;;;;;;;6.60;2.30;;;18.80;77.80;;;;;;5068347;28;20427;-68
2023/10/04 10:01:49;;;;;;;6.85;2.47;;;18.60;78.30;;;;;;5064306;28;20925;-68
2023/10/04 10:04:19;;;;;;;4.75;2.05;;;18.50;76.80;;;;;;5066597;28;20948;-68
2023/10/04 10:06:57;;;;;;;7.75;2.38;;;18.40;78.50;;;;;;5067144;28;20886;-69
2023/10/04 10:09:25;;;;;;;5.17;2.37;;;18.50;78.80;;;;;;5064545;28;20846;-68
2023/10/04 10:11:54;;;;;;;6.15;2.80;;;18.60;78.00;;;;;;5068115;28;20461;-68
2023/10/04 10:14:22;;;;;;;6.63;2.90;;;18.70;77.90;;;;;;5067922;28;20436;-68
2023/10/04 10:16:54;;;;;;;4.88;2.20;;;18.80;77.00;;;;;;5067141;28;20416;-69
2023/10/04 10:19:23;;;;;;;5.70;2.50;;;18.80;72.00;;;;;;5065619;28;21000;-68
2023/10/04 10:22:11;;;;;;;5.38;2.20;;;18.80;72.70;;;;;;5066495;28;20423;-68
2023/10/04 10:24:45;;;;;;;5.67;2.80;;;18.70;73.20;;;;;;5062870;28;20913;-69
2023/10/04 10:27:15;;;;;;;9.10;2.93;;;18.70;72.80;;;;;;5070591;28;20461;-69
2023/10/04 10:29:42;;;;;;;4.22;2.40;;;18.60;72.10;;;;;;5062712;28;20800;-69
2023/10/04 10:32:17;;;;;;;5.20;2.70;;;18.50;74.00;;;;;;5064283;28;20416;-68
2023/10/04 10:34:44;;;;;;;6.45;2.60;;;18.50;75.10;;;;;;5064117;28;20424;-68
2023/10/04 10:37:19;;;;;;;5.65;2.92;;;18.60;70.60;;;;;;5065005;28;20509;-68
2023/10/04 10:39:47;;;;;;;5.68;2.60;;;18.60;72.40;;;;;;5065901;28;20480;-68
2023/10/04 10:42:14;;;;;;;5.72;2.50;;;18.70;72.00;;;;;;5056174;28;20440;-68
2023/10/04 10:44:41;;;;;;;6.72;2.40;;;18.60;72.70;;;;;;5061257;28;20882;-69
2023/10/04 10:47:22;;;;;;;5.18;2.40;;;18.60;71.90;;;;;;5071831;28;20406;-69
2023/10/04 10:50:01;;;;;;;4.53;2.50;;;18.80;72.20;;;;;;5066495;28;20801;-68
2023/10/04 10:52:33;;;;;;;5.47;2.90;;;19.00;70.00;;;;;;5059420;28;20429;-69
2023/10/04 10:55:03;;;;;;;5.65;2.60;;;19.00;69.70;;;;;;5067414;28;20408;-69
2023/10/04 10:57:30;;;;;;;7.88;2.88;;;19.00;70.40;;;;;;5066842;28;20435;-68
2023/10/04 11:00:02;;;;;;;4.18;2.72;;;19.00;70.00;;;;;;5067141;28;20463;-68
2023/10/04 11:02:29;;;;;;;6.00;3.13;;;18.90;71.90;;;;;;5067899;28;20411;-69
2023/10/04 11:04:56;;;;;;;6.03;2.45;;;18.90;71.70;;;;;;5065739;28;20427;-69
2023/10/04 11:07:24;;;;;;;6.10;3.03;;;18.90;72.10;;;;;;5067069;28;20500;-69
2023/10/04 11:09:52;;;;;;;5.30;2.80;;;18.80;73.00;;;;;;5067145;28;20725;-68
2023/10/04 11:12:21;;;;;;;5.55;2.90;;;18.70;74.60;;;;;;5067503;28;20404;-69
2023/10/04 11:14:49;;;;;;;5.38;2.90;;;18.60;75.50;;;;;;5063653;28;20477;-69
2023/10/04 11:17:16;;;;;;;5.60;3.00;;;18.60;75.30;;;;;;5063807;28;20517;-69
2023/10/04 11:19:44;;;;;;;6.32;2.92;;;18.70;74.90;;;;;;5062348;28;20438;-69
2023/10/04 11:22:12;;;;;;;5.85;3.10;;;18.80;74.70;;;;;;5067181;28;20440;-70
2023/10/04 11:24:40;;;;;;;4.83;2.80;;;18.90;71.90;;;;;;5066456;28;20434;-68
2023/10/04 11:27:08;;;;;;;5.88;3.15;;;18.90;72.60;;;;;;5066076;28;20427;-68
2023/10/04 11:29:35;;;;;;;5.78;3.10;;;18.90;74.00;;;;;;5066811;28;20416;-69
2023/10/04 11:32:02;;;;;;;5.25;3.08;;;18.90;72.30;;;;;;5066012;28;20431;-69
2023/10/04 11:34:35;;;;;;;6.95;3.50;;;18.80;72.00;;;;;;5065724;28;20928;-69
2023/10/04 11:37:03;;;;;;;7.35;3.20;;;18.80;71.10;;;;;;5066926;28;20758;-69
2023/10/04 11:39:33;;;;;;;5.07;3.40;;;18.70;71.60;;;;;;5066376;28;20427;-69
2023/10/04 11:42:02;;;;;;;7.38;3.72;;;18.60;72.00;;;;;;5066919;28;20831;-68
2023/10/04 11:44:32;;;;;;;6.70;3.47;;;18.50;73.10;;;;;;5065942;28;20436;-68
2023/10/04 11:47:03;;;;;;;6.20;3.25;;;18.50;72.10;;;;;;5066625;28;20508;-68
2023/10/04 11:49:32;;;;;;;6.05;3.25;;;18.40;72.90;;;;;;5069777;28;20494;-68
2023/10/04 11:51:59;;;;;;;8.95;3.50;;;18.30;73.50;;;;;;5070623;28;20423;-69
2023/10/04 11:54:38;;;;;;;6.10;3.10;;;18.20;73.60;;;;;;5069594;28;20432;-68
2023/10/04 11:57:05;;;;;;;6.63;3.30;;;18.10;73.60;;;;;;5066827;28;20477;-69
2023/10/04 11:59:34;;;;;;;7.28;3.53;;;18.10;74.70;;;;;;5069748;28;20431;-68
2023/10/04 12:02:01;;;;;;;6.88;3.92;;;18.10;74.40;;;;;;5070064;28;20422;-68
2023/10/04 12:04:29;;;;;;;5.70;3.75;;;18.10;74.30;;;;;;5070369;28;20894;-69
2023/10/04 12:07:01;;;;;;;7.70;3.80;;;18.20;73.50;;;;;;5070893;28;20818;-69
2023/10/04 12:09:30;;;;;;;7.03;4.30;;;18.30;73.70;;;;;;5068215;28;20510;-69
2023/10/04 12:11:57;;;;;;;7.40;4.00;;;18.40;71.50;;;;;;5070320;28;20597;-68
2023/10/04 12:14:26;;;;;;;7.10;4.07;;;18.60;69.30;;;;;;5069273;28;20450;-69
2023/10/04 12:16:54;;;;;;;7.10;4.30;;;18.70;68.10;;;;;;5070171;28;21067;-68
2023/10/04 12:19:21;;;;;;;6.75;4.28;;;18.80;67.50;;;;;;5066716;28;20426;-68
2023/10/04 12:21:48;;;;;;;8.55;4.22;;;18.70;66.20;;;;;;5069235;28;20454;-69
2023/10/04 12:24:15;;;;;;;7.90;4.05;;;18.50;66.40;;;;;;5070185;28;20411;-69
2023/10/04 12:26:42;;;;;;;8.60;4.68;;;18.40;68.00;;;;;;5070176;28;20439;-68
2023/10/04 12:29:11;;;;;;;6.50;4.10;;;18.30;68.70;;;;;;5068253;28;20430;-68
2023/10/04 12:31:37;;;;;;;9.27;4.97;;;18.30;68.90;;;;;;5068802;28;20992;-69
2023/10/04 12:34:05;;;;;;;8.20;4.70;;;18.30;70.00;;;;;;5069981;28;20602;-68
2023/10/04 12:36:32;;;;;;;8.15;4.25;;;18.40;67.90;;;;;;5069252;28;20423;-69
2023/10/04 12:39:00;;;;;;;7.10;4.43;;;18.40;67.80;;;;;;5067656;28;20906;-69
2023/10/04 12:41:26;;;;;;;7.43;4.47;;;18.40;68.00;;;;;;5069436;28;20489;-68
2023/10/04 12:43:53;;;;;;;7.63;4.65;;;18.50;69.10;;;;;;5066329;28;20404;-69
2023/10/04 12:46:21;;;;;;;8.70;4.67;;;18.60;67.80;;;;;;5067564;28;20428;-69
2023/10/04 12:48:48;;;;;;;8.73;4.55;;;18.70;67.90;;;;;;5066444;28;20423;-69
2023/10/04 12:51:16;;;;;;;7.53;4.40;;;18.70;65.20;;;;;;5069137;28;20422;-68
2023/10/04 12:53:44;;;;;;;7.65;4.50;;;18.80;64.70;;;;;;5068547;28;20485;-69
2023/10/04 12:56:11;;;;;;;8.23;5.00;;;18.80;65.00;;;;;;5069319;28;20416;-69